sensor_id;sensor_type;location;lat;lon;timestamp;P1;durP1;ratioP1;P2;durP2;ratioP2
28003;SDS011;15330;51.234;6.754;2023-08-12T00:00:46;24.42;;;16.50;;
28003;SDS011;15330;51.234;6.754;2023-08-12T00:03:11;26.40;;;16.40;;
28003;SDS011;15330;51.234;6.754;2023-08-12T00:05:37;25.05;;;16.35;;
28003;SDS011;15330;51.234;6.754;2023-08-12T00:08:04;21.08;;;14.02;;
28003;SDS011;15330;51.234;6.754;2023-08-12T00:10:31;22.80;;;15.77;;
28003;SDS011;15330;51.234;6.754;2023-08-12T00:12:56;21.60;;;15.82;;
28003;SDS011;15330;51.234;6.754;2023-08-12T00:15:22;22.45;;;15.40;;
28003;SDS011;15330;51.234;6.754;2023-08-12T00:17:47;22.92;;;16.23;;
28003;SDS011;15330;51.234;6.754;2023-08-12T00:20:13;25.55;;;17.92;;
28003;SDS011;15330;51.234;6.754;2023-08-12T00:22:39;31.25;;;19.98;;
28003;SDS011;15330;51.234;6.754;2023-08-12T00:25:05;25.58;;;20.65;;
28003;SDS011;15330;51.234;6.754;2023-08-12T00:27:31;26.45;;;17.83;;
28003;SDS011;15330;51.234;6.754;2023-08-12T00:29:56;25.13;;;18.85;;
28003;SDS011;15330;51.234;6.754;2023-08-12T00:32:22;22.90;;;17.55;;
28003;SDS011;15330;51.234;6.754;2023-08-12T00:34:47;24.08;;;16.95;;
28003;SDS011;15330;51.234;6.754;2023-08-12T00:37:13;23.08;;;17.02;;
28003;SDS011;15330;51.234;6.754;2023-08-12T00:39:38;23.75;;;16.80;;
28003;SDS011;15330;51.234;6.754;2023-08-12T00:42:04;22.70;;;16.45;;
28003;SDS011;15330;51.234;6.754;2023-08-12T00:44:29;24.15;;;16.45;;
28003;SDS011;15330;51.234;6.754;2023-08-12T00:46:55;22.38;;;15.93;;
28003;SDS011;15330;51.234;6.754;2023-08-12T00:49:21;20.25;;;16.45;;
28003;SDS011;15330;51.234;6.754;2023-08-12T00:51:50;26.88;;;18.77;;
28003;SDS011;15330;51.234;6.754;2023-08-12T00:54:17;26.75;;;17.92;;
28003;SDS011;15330;51.234;6.754;2023-08-12T00:56:44;25.45;;;16.75;;
28003;SDS011;15330;51.234;6.754;2023-08-12T00:59:10;29.35;;;22.25;;
28003;SDS011;15330;51.234;6.754;2023-08-12T01:01:40;47.88;;;30.35;;
28003;SDS011;15330;51.234;6.754;2023-08-12T01:04:08;48.97;;;32.85;;
28003;SDS011;15330;51.234;6.754;2023-08-12T01:06:34;105.70;;;60.13;;
28003;SDS011;15330;51.234;6.754;2023-08-12T01:09:00;98.18;;;55.97;;
28003;SDS011;15330;51.234;6.754;2023-08-12T01:11:32;87.60;;;53.05;;
28003;SDS011;15330;51.234;6.754;2023-08-12T01:14:17;90.30;;;52.47;;
28003;SDS011;15330;51.234;6.754;2023-08-12T01:16:47;65.35;;;42.30;;
28003;SDS011;15330;51.234;6.754;2023-08-12T01:22:03;52.92;;;34.60;;
28003;SDS011;15330;51.234;6.754;2023-08-12T01:24:39;48.83;;;30.40;;
28003;SDS011;15330;51.234;6.754;2023-08-12T01:27:05;45.78;;;29.30;;
28003;SDS011;15330;51.234;6.754;2023-08-12T01:29:35;39.40;;;27.98;;
28003;SDS011;15330;51.234;6.754;2023-08-12T01:35:14;41.47;;;28.20;;
28003;SDS011;15330;51.234;6.754;2023-08-12T01:37:44;44.60;;;26.77;;
28003;SDS011;15330;51.234;6.754;2023-08-12T01:40:10;42.30;;;27.38;;
28003;SDS011;15330;51.234;6.754;2023-08-12T01:42:39;38.30;;;27.50;;
28003;SDS011;15330;51.234;6.754;2023-08-12T01:45:05;42.15;;;29.17;;
28003;SDS011;15330;51.234;6.754;2023-08-12T01:47:31;44.10;;;30.70;;
28003;SDS011;15330;51.234;6.754;2023-08-12T01:49:57;40.58;;;29.23;;
28003;SDS011;15330;51.234;6.754;2023-08-12T01:52:23;42.03;;;27.77;;
28003;SDS011;15330;51.234;6.754;2023-08-12T01:54:48;43.65;;;29.95;;
28003;SDS011;15330;51.234;6.754;2023-08-12T01:57:13;43.80;;;30.45;;
28003;SDS011;15330;51.234;6.754;2023-08-12T01:59:39;42.58;;;29.83;;
28003;SDS011;15330;51.234;6.754;2023-08-12T02:02:04;45.47;;;32.35;;
28003;SDS011;15330;51.234;6.754;2023-08-12T02:04:30;47.35;;;33.58;;
28003;SDS011;15330;51.234;6.754;2023-08-12T02:06:55;54.28;;;33.72;;
28003;SDS011;15330;51.234;6.754;2023-08-12T02:09:21;44.42;;;30.85;;
28003;SDS011;15330;51.234;6.754;2023-08-12T02:11:47;43.65;;;30.30;;
28003;SDS011;15330;51.234;6.754;2023-08-12T02:14:13;43.70;;;29.63;;
28003;SDS011;15330;51.234;6.754;2023-08-12T02:16:39;38.55;;;26.15;;
28003;SDS011;15330;51.234;6.754;2023-08-12T02:19:04;41.30;;;26.60;;
28003;SDS011;15330;51.234;6.754;2023-08-12T02:21:29;40.47;;;29.10;;
28003;SDS011;15330;51.234;6.754;2023-08-12T02:23:55;49.00;;;30.40;;
28003;SDS011;15330;51.234;6.754;2023-08-12T02:26:20;43.80;;;29.88;;
28003;SDS011;15330;51.234;6.754;2023-08-12T02:28:45;42.85;;;28.92;;
28003;SDS011;15330;51.234;6.754;2023-08-12T02:31:11;43.00;;;29.38;;
28003;SDS011;15330;51.234;6.754;2023-08-12T02:33:36;43.03;;;28.88;;
28003;SDS011;15330;51.234;6.754;2023-08-12T02:36:02;46.03;;;29.60;;
28003;SDS011;15330;51.234;6.754;2023-08-12T02:38:27;38.92;;;27.83;;
28003;SDS011;15330;51.234;6.754;2023-08-12T02:40:53;40.88;;;27.00;;
28003;SDS011;15330;51.234;6.754;2023-08-12T02:43:18;40.55;;;27.10;;
28003;SDS011;15330;51.234;6.754;2023-08-12T02:45:44;40.10;;;25.77;;
28003;SDS011;15330;51.234;6.754;2023-08-12T02:48:10;32.55;;;22.38;;
28003;SDS011;15330;51.234;6.754;2023-08-12T02:50:35;28.13;;;17.10;;
28003;SDS011;15330;51.234;6.754;2023-08-12T02:53:02;27.42;;;17.52;;
28003;SDS011;15330;51.234;6.754;2023-08-12T02:55:27;20.50;;;15.93;;
28003;SDS011;15330;51.234;6.754;2023-08-12T02:57:53;25.25;;;14.25;;
28003;SDS011;15330;51.234;6.754;2023-08-12T03:00:18;23.65;;;13.73;;
28003;SDS011;15330;51.234;6.754;2023-08-12T03:02:44;20.33;;;14.30;;
28003;SDS011;15330;51.234;6.754;2023-08-12T03:05:09;21.48;;;14.20;;
28003;SDS011;15330;51.234;6.754;2023-08-12T03:07:35;22.15;;;14.82;;
28003;SDS011;15330;51.234;6.754;2023-08-12T03:10:00;23.75;;;15.52;;
28003;SDS011;15330;51.234;6.754;2023-08-12T03:12:26;27.80;;;17.67;;
28003;SDS011;15330;51.234;6.754;2023-08-12T03:14:51;29.50;;;19.85;;
28003;SDS011;15330;51.234;6.754;2023-08-12T03:17:16;30.75;;;21.33;;
28003;SDS011;15330;51.234;6.754;2023-08-12T03:19:42;40.55;;;22.92;;
28003;SDS011;15330;51.234;6.754;2023-08-12T03:22:07;39.65;;;24.38;;
28003;SDS011;15330;51.234;6.754;2023-08-12T03:24:33;38.42;;;24.92;;
28003;SDS011;15330;51.234;6.754;2023-08-12T03:26:58;38.08;;;25.73;;
28003;SDS011;15330;51.234;6.754;2023-08-12T03:29:24;42.17;;;25.58;;
28003;SDS011;15330;51.234;6.754;2023-08-12T03:31:49;39.30;;;25.48;;
28003;SDS011;15330;51.234;6.754;2023-08-12T03:34:15;44.20;;;28.63;;
28003;SDS011;15330;51.234;6.754;2023-08-12T03:36:40;36.53;;;27.38;;
28003;SDS011;15330;51.234;6.754;2023-08-12T03:39:06;41.55;;;27.95;;
28003;SDS011;15330;51.234;6.754;2023-08-12T03:41:31;42.75;;;27.00;;
28003;SDS011;15330;51.234;6.754;2023-08-12T03:43:57;40.50;;;28.33;;
28003;SDS011;15330;51.234;6.754;2023-08-12T03:46:22;42.22;;;27.52;;
28003;SDS011;15330;51.234;6.754;2023-08-12T03:48:47;42.13;;;28.40;;
28003;SDS011;15330;51.234;6.754;2023-08-12T03:51:13;39.95;;;28.08;;
28003;SDS011;15330;51.234;6.754;2023-08-12T03:53:38;38.72;;;26.33;;
28003;SDS011;15330;51.234;6.754;2023-08-12T03:56:04;37.33;;;27.23;;
28003;SDS011;15330;51.234;6.754;2023-08-12T03:58:29;44.00;;;30.08;;
28003;SDS011;15330;51.234;6.754;2023-08-12T04:00:55;39.88;;;26.08;;
28003;SDS011;15330;51.234;6.754;2023-08-12T04:03:20;38.60;;;28.92;;
28003;SDS011;15330;51.234;6.754;2023-08-12T04:05:51;38.75;;;28.38;;
28003;SDS011;15330;51.234;6.754;2023-08-12T04:08:18;46.92;;;30.80;;
28003;SDS011;15330;51.234;6.754;2023-08-12T04:10:47;48.40;;;31.60;;
28003;SDS011;15330;51.234;6.754;2023-08-12T04:13:13;49.90;;;32.13;;
28003;SDS011;15330;51.234;6.754;2023-08-12T04:15:40;50.17;;;35.35;;
28003;SDS011;15330;51.234;6.754;2023-08-12T04:18:06;52.45;;;32.97;;
28003;SDS011;15330;51.234;6.754;2023-08-12T04:20:31;49.47;;;32.90;;
28003;SDS011;15330;51.234;6.754;2023-08-12T04:22:56;46.58;;;33.88;;
28003;SDS011;15330;51.234;6.754;2023-08-12T04:25:22;47.05;;;33.40;;
28003;SDS011;15330;51.234;6.754;2023-08-12T04:27:47;48.40;;;33.05;;
28003;SDS011;15330;51.234;6.754;2023-08-12T04:30:14;58.72;;;38.88;;
28003;SDS011;15330;51.234;6.754;2023-08-12T04:32:41;55.83;;;40.45;;
28003;SDS011;15330;51.234;6.754;2023-08-12T04:35:06;62.63;;;40.13;;
28003;SDS011;15330;51.234;6.754;2023-08-12T04:37:32;61.92;;;40.90;;
28003;SDS011;15330;51.234;6.754;2023-08-12T04:39:57;64.20;;;43.13;;
28003;SDS011;15330;51.234;6.754;2023-08-12T04:42:23;54.15;;;37.67;;
28003;SDS011;15330;51.234;6.754;2023-08-12T04:44:48;52.05;;;36.63;;
28003;SDS011;15330;51.234;6.754;2023-08-12T04:47:14;55.90;;;36.28;;
28003;SDS011;15330;51.234;6.754;2023-08-12T04:49:39;51.70;;;35.30;;
28003;SDS011;15330;51.234;6.754;2023-08-12T04:52:05;46.25;;;33.47;;
28003;SDS011;15330;51.234;6.754;2023-08-12T04:54:31;45.78;;;32.15;;
28003;SDS011;15330;51.234;6.754;2023-08-12T04:56:57;46.30;;;33.05;;
28003;SDS011;15330;51.234;6.754;2023-08-12T04:59:22;40.40;;;26.42;;
28003;SDS011;15330;51.234;6.754;2023-08-12T05:01:48;44.40;;;29.73;;
28003;SDS011;15330;51.234;6.754;2023-08-12T05:04:14;42.63;;;30.38;;
28003;SDS011;15330;51.234;6.754;2023-08-12T05:06:40;45.60;;;33.45;;
28003;SDS011;15330;51.234;6.754;2023-08-12T05:09:05;52.75;;;33.15;;
28003;SDS011;15330;51.234;6.754;2023-08-12T05:11:31;45.17;;;31.08;;
28003;SDS011;15330;51.234;6.754;2023-08-12T05:13:56;43.80;;;28.65;;
28003;SDS011;15330;51.234;6.754;2023-08-12T05:16:21;43.92;;;29.25;;
28003;SDS011;15330;51.234;6.754;2023-08-12T05:18:47;43.67;;;31.52;;
28003;SDS011;15330;51.234;6.754;2023-08-12T05:21:12;42.58;;;28.45;;
28003;SDS011;15330;51.234;6.754;2023-08-12T05:23:38;40.88;;;27.02;;
28003;SDS011;15330;51.234;6.754;2023-08-12T05:26:03;36.97;;;26.60;;
28003;SDS011;15330;51.234;6.754;2023-08-12T05:28:28;36.53;;;26.30;;
28003;SDS011;15330;51.234;6.754;2023-08-12T05:30:54;34.13;;;24.77;;
28003;SDS011;15330;51.234;6.754;2023-08-12T05:33:20;37.25;;;24.05;;
28003;SDS011;15330;51.234;6.754;2023-08-12T05:35:49;29.10;;;22.77;;
28003;SDS011;15330;51.234;6.754;2023-08-12T05:38:15;30.70;;;22.23;;
28003;SDS011;15330;51.234;6.754;2023-08-12T05:40:41;28.35;;;22.23;;
28003;SDS011;15330;51.234;6.754;2023-08-12T05:43:06;31.30;;;21.73;;
28003;SDS011;15330;51.234;6.754;2023-08-12T05:45:32;36.40;;;21.17;;
28003;SDS011;15330;51.234;6.754;2023-08-12T05:47:57;32.97;;;22.67;;
28003;SDS011;15330;51.234;6.754;2023-08-12T05:50:23;31.38;;;23.30;;
28003;SDS011;15330;51.234;6.754;2023-08-12T05:52:48;27.73;;;20.67;;
28003;SDS011;15330;51.234;6.754;2023-08-12T05:55:13;22.33;;;17.92;;
28003;SDS011;15330;51.234;6.754;2023-08-12T05:57:39;21.00;;;16.65;;
28003;SDS011;15330;51.234;6.754;2023-08-12T06:00:04;26.00;;;16.27;;
28003;SDS011;15330;51.234;6.754;2023-08-12T06:02:31;20.80;;;14.48;;
28003;SDS011;15330;51.234;6.754;2023-08-12T06:04:56;20.88;;;15.00;;
28003;SDS011;15330;51.234;6.754;2023-08-12T06:07:22;23.60;;;14.35;;
28003;SDS011;15330;51.234;6.754;2023-08-12T06:09:48;21.52;;;15.05;;
28003;SDS011;15330;51.234;6.754;2023-08-12T06:12:14;19.77;;;15.30;;
28003;SDS011;15330;51.234;6.754;2023-08-12T06:14:39;20.42;;;14.77;;
28003;SDS011;15330;51.234;6.754;2023-08-12T06:17:05;23.85;;;15.40;;
28003;SDS011;15330;51.234;6.754;2023-08-12T06:19:31;22.08;;;14.85;;
28003;SDS011;15330;51.234;6.754;2023-08-12T06:21:56;21.92;;;15.80;;
28003;SDS011;15330;51.234;6.754;2023-08-12T06:24:21;21.33;;;16.02;;
28003;SDS011;15330;51.234;6.754;2023-08-12T06:26:47;19.92;;;15.95;;
28003;SDS011;15330;51.234;6.754;2023-08-12T06:29:12;24.08;;;15.95;;
28003;SDS011;15330;51.234;6.754;2023-08-12T06:31:38;21.27;;;15.07;;
28003;SDS011;15330;51.234;6.754;2023-08-12T06:34:03;22.23;;;15.38;;
28003;SDS011;15330;51.234;6.754;2023-08-12T06:36:29;22.05;;;15.07;;
28003;SDS011;15330;51.234;6.754;2023-08-12T06:38:54;22.42;;;16.08;;
28003;SDS011;15330;51.234;6.754;2023-08-12T06:41:19;21.73;;;17.98;;
28003;SDS011;15330;51.234;6.754;2023-08-12T06:43:45;21.42;;;16.80;;
28003;SDS011;15330;51.234;6.754;2023-08-12T06:46:10;24.00;;;16.75;;
28003;SDS011;15330;51.234;6.754;2023-08-12T06:48:36;23.23;;;17.40;;
28003;SDS011;15330;51.234;6.754;2023-08-12T06:51:01;25.40;;;16.95;;
28003;SDS011;15330;51.234;6.754;2023-08-12T06:53:32;21.27;;;15.73;;
28003;SDS011;15330;51.234;6.754;2023-08-12T06:55:57;20.98;;;16.00;;
28003;SDS011;15330;51.234;6.754;2023-08-12T06:58:22;25.75;;;17.00;;
28003;SDS011;15330;51.234;6.754;2023-08-12T07:00:48;21.40;;;16.33;;
28003;SDS011;15330;51.234;6.754;2023-08-12T07:03:13;21.85;;;15.27;;
28003;SDS011;15330;51.234;6.754;2023-08-12T07:05:38;19.58;;;15.90;;
28003;SDS011;15330;51.234;6.754;2023-08-12T07:08:04;18.48;;;15.45;;
28003;SDS011;15330;51.234;6.754;2023-08-12T07:10:30;19.13;;;16.00;;
28003;SDS011;15330;51.234;6.754;2023-08-12T07:12:55;23.85;;;14.65;;
28003;SDS011;15330;51.234;6.754;2023-08-12T07:15:20;15.25;;;13.18;;
28003;SDS011;15330;51.234;6.754;2023-08-12T07:17:46;15.80;;;14.20;;
28003;SDS011;15330;51.234;6.754;2023-08-12T07:20:11;18.80;;;13.07;;
28003;SDS011;15330;51.234;6.754;2023-08-12T07:22:37;14.65;;;12.57;;
28003;SDS011;15330;51.234;6.754;2023-08-12T07:25:02;20.10;;;12.38;;
28003;SDS011;15330;51.234;6.754;2023-08-12T07:27:28;17.38;;;13.75;;
28003;SDS011;15330;51.234;6.754;2023-08-12T07:29:53;19.88;;;11.63;;
28003;SDS011;15330;51.234;6.754;2023-08-12T07:32:19;14.10;;;12.20;;
28003;SDS011;15330;51.234;6.754;2023-08-12T07:34:45;17.42;;;12.10;;
28003;SDS011;15330;51.234;6.754;2023-08-12T07:37:10;15.20;;;11.43;;
28003;SDS011;15330;51.234;6.754;2023-08-12T07:39:36;16.83;;;12.50;;
28003;SDS011;15330;51.234;6.754;2023-08-12T07:42:01;14.80;;;10.98;;
28003;SDS011;15330;51.234;6.754;2023-08-12T07:44:27;17.17;;;11.77;;
28003;SDS011;15330;51.234;6.754;2023-08-12T07:46:52;18.15;;;12.10;;
28003;SDS011;15330;51.234;6.754;2023-08-12T07:49:18;17.13;;;11.60;;
28003;SDS011;15330;51.234;6.754;2023-08-12T07:51:43;13.30;;;11.75;;
28003;SDS011;15330;51.234;6.754;2023-08-12T07:54:09;14.27;;;11.98;;
28003;SDS011;15330;51.234;6.754;2023-08-12T07:56:34;15.02;;;11.98;;
28003;SDS011;15330;51.234;6.754;2023-08-12T07:58:59;16.80;;;11.95;;
28003;SDS011;15330;51.234;6.754;2023-08-12T08:01:25;14.73;;;11.73;;
28003;SDS011;15330;51.234;6.754;2023-08-12T08:03:50;13.95;;;11.15;;
28003;SDS011;15330;51.234;6.754;2023-08-12T08:06:15;13.05;;;9.95;;
28003;SDS011;15330;51.234;6.754;2023-08-12T08:08:41;12.90;;;10.23;;
28003;SDS011;15330;51.234;6.754;2023-08-12T08:11:06;15.73;;;9.93;;
28003;SDS011;15330;51.234;6.754;2023-08-12T08:13:31;13.35;;;9.50;;
28003;SDS011;15330;51.234;6.754;2023-08-12T08:15:57;13.55;;;8.82;;
28003;SDS011;15330;51.234;6.754;2023-08-12T08:18:22;9.65;;;8.60;;
28003;SDS011;15330;51.234;6.754;2023-08-12T08:20:48;16.73;;;8.63;;
28003;SDS011;15330;51.234;6.754;2023-08-12T08:23:13;13.30;;;8.05;;
28003;SDS011;15330;51.234;6.754;2023-08-12T08:25:39;9.63;;;7.97;;
28003;SDS011;15330;51.234;6.754;2023-08-12T08:28:04;11.30;;;7.85;;
28003;SDS011;15330;51.234;6.754;2023-08-12T08:30:30;9.15;;;7.10;;
28003;SDS011;15330;51.234;6.754;2023-08-12T08:32:55;8.38;;;7.55;;
28003;SDS011;15330;51.234;6.754;2023-08-12T08:35:20;10.18;;;7.05;;
28003;SDS011;15330;51.234;6.754;2023-08-12T08:37:46;12.02;;;6.88;;
28003;SDS011;15330;51.234;6.754;2023-08-12T08:40:11;10.40;;;7.15;;
28003;SDS011;15330;51.234;6.754;2023-08-12T08:42:37;9.10;;;6.95;;
28003;SDS011;15330;51.234;6.754;2023-08-12T08:45:03;8.85;;;6.47;;
28003;SDS011;15330;51.234;6.754;2023-08-12T08:47:36;7.13;;;6.32;;
28003;SDS011;15330;51.234;6.754;2023-08-12T08:50:03;8.60;;;6.22;;
28003;SDS011;15330;51.234;6.754;2023-08-12T08:52:29;8.32;;;6.20;;
28003;SDS011;15330;51.234;6.754;2023-08-12T08:54:56;8.30;;;6.43;;
28003;SDS011;15330;51.234;6.754;2023-08-12T08:57:22;10.10;;;6.82;;
28003;SDS011;15330;51.234;6.754;2023-08-12T08:59:48;7.97;;;5.70;;
28003;SDS011;15330;51.234;6.754;2023-08-12T09:02:15;7.82;;;5.40;;
28003;SDS011;15330;51.234;6.754;2023-08-12T09:04:45;7.85;;;5.63;;
28003;SDS011;15330;51.234;6.754;2023-08-12T09:07:12;10.95;;;5.47;;
28003;SDS011;15330;51.234;6.754;2023-08-12T09:09:44;8.35;;;6.10;;
28003;SDS011;15330;51.234;6.754;2023-08-12T09:12:13;8.07;;;4.97;;
28003;SDS011;15330;51.234;6.754;2023-08-12T09:14:40;6.65;;;4.72;;
28003;SDS011;15330;51.234;6.754;2023-08-12T09:17:07;6.13;;;4.13;;
28003;SDS011;15330;51.234;6.754;2023-08-12T09:19:32;7.70;;;4.50;;
28003;SDS011;15330;51.234;6.754;2023-08-12T09:21:58;5.05;;;3.90;;
28003;SDS011;15330;51.234;6.754;2023-08-12T09:24:24;5.72;;;3.92;;
28003;SDS011;15330;51.234;6.754;2023-08-12T09:26:53;6.95;;;4.78;;
28003;SDS011;15330;51.234;6.754;2023-08-12T09:29:23;4.40;;;3.63;;
28003;SDS011;15330;51.234;6.754;2023-08-12T09:31:54;7.75;;;3.92;;
28003;SDS011;15330;51.234;6.754;2023-08-12T09:34:19;7.35;;;3.47;;
28003;SDS011;15330;51.234;6.754;2023-08-12T09:36:46;6.07;;;4.22;;
28003;SDS011;15330;51.234;6.754;2023-08-12T09:39:12;9.70;;;3.70;;
28003;SDS011;15330;51.234;6.754;2023-08-12T09:41:38;5.65;;;3.88;;
28003;SDS011;15330;51.234;6.754;2023-08-12T09:44:06;4.43;;;3.08;;
28003;SDS011;15330;51.234;6.754;2023-08-12T09:46:34;3.88;;;3.20;;
28003;SDS011;15330;51.234;6.754;2023-08-12T09:49:00;5.05;;;2.95;;
28003;SDS011;15330;51.234;6.754;2023-08-12T09:51:25;5.43;;;2.75;;
28003;SDS011;15330;51.234;6.754;2023-08-12T09:53:51;5.10;;;2.22;;
28003;SDS011;15330;51.234;6.754;2023-08-12T09:56:17;4.22;;;2.42;;
28003;SDS011;15330;51.234;6.754;2023-08-12T09:58:45;5.50;;;2.22;;
28003;SDS011;15330;51.234;6.754;2023-08-12T10:01:13;3.75;;;2.40;;
28003;SDS011;15330;51.234;6.754;2023-08-12T10:03:41;4.10;;;2.30;;
28003;SDS011;15330;51.234;6.754;2023-08-12T10:06:13;2.45;;;2.10;;
28003;SDS011;15330;51.234;6.754;2023-08-12T10:08:40;3.58;;;2.05;;
28003;SDS011;15330;51.234;6.754;2023-08-12T10:11:06;4.60;;;2.35;;
28003;SDS011;15330;51.234;6.754;2023-08-12T10:13:33;3.13;;;2.20;;
28003;SDS011;15330;51.234;6.754;2023-08-12T10:15:59;2.67;;;1.98;;
28003;SDS011;15330;51.234;6.754;2023-08-12T10:18:25;4.13;;;2.08;;
28003;SDS011;15330;51.234;6.754;2023-08-12T10:20:53;2.08;;;1.80;;
28003;SDS011;15330;51.234;6.754;2023-08-12T10:23:22;3.42;;;2.00;;
28003;SDS011;15330;51.234;6.754;2023-08-12T10:25:49;2.90;;;1.65;;
28003;SDS011;15330;51.234;6.754;2023-08-12T10:28:19;2.25;;;1.60;;
28003;SDS011;15330;51.234;6.754;2023-08-12T10:30:45;3.10;;;2.50;;
28003;SDS011;15330;51.234;6.754;2023-08-12T10:33:10;3.00;;;2.80;;
28003;SDS011;15330;51.234;6.754;2023-08-12T10:35:46;2.90;;;2.10;;
28003;SDS011;15330;51.234;6.754;2023-08-12T10:38:21;2.78;;;1.98;;
28003;SDS011;15330;51.234;6.754;2023-08-12T10:40:50;4.10;;;2.40;;
28003;SDS011;15330;51.234;6.754;2023-08-12T10:43:16;3.63;;;2.30;;
28003;SDS011;15330;51.234;6.754;2023-08-12T10:46:15;3.35;;;1.80;;
28003;SDS011;15330;51.234;6.754;2023-08-12T10:48:55;1.80;;;1.45;;
28003;SDS011;15330;51.234;6.754;2023-08-12T11:02:15;2.10;;;1.30;;
28003;SDS011;15330;51.234;6.754;2023-08-12T11:09:55;3.15;;;1.70;;
28003;SDS011;15330;51.234;6.754;2023-08-12T11:12:33;2.10;;;1.58;;
28003;SDS011;15330;51.234;6.754;2023-08-12T11:14:59;2.60;;;1.70;;
28003;SDS011;15330;51.234;6.754;2023-08-12T11:17:30;2.22;;;1.73;;
28003;SDS011;15330;51.234;6.754;2023-08-12T11:20:07;1.70;;;1.60;;
28003;SDS011;15330;51.234;6.754;2023-08-12T11:22:37;2.58;;;1.70;;
28003;SDS011;15330;51.234;6.754;2023-08-12T11:25:05;2.50;;;1.55;;
28003;SDS011;15330;51.234;6.754;2023-08-12T11:27:45;2.22;;;1.75;;
28003;SDS011;15330;51.234;6.754;2023-08-12T11:30:12;1.73;;;1.60;;
28003;SDS011;15330;51.234;6.754;2023-08-12T11:32:44;3.38;;;1.48;;
28003;SDS011;15330;51.234;6.754;2023-08-12T11:35:11;2.03;;;1.20;;
28003;SDS011;15330;51.234;6.754;2023-08-12T11:37:40;2.92;;;1.73;;
28003;SDS011;15330;51.234;6.754;2023-08-12T11:40:09;1.17;;;1.08;;
28003;SDS011;15330;51.234;6.754;2023-08-12T11:42:36;1.00;;;1.00;;
28003;SDS011;15330;51.234;6.754;2023-08-12T11:45:05;1.20;;;0.90;;
28003;SDS011;15330;51.234;6.754;2023-08-12T11:47:35;2.10;;;1.08;;
28003;SDS011;15330;51.234;6.754;2023-08-12T11:50:03;1.60;;;1.00;;
28003;SDS011;15330;51.234;6.754;2023-08-12T11:52:29;2.13;;;1.00;;
28003;SDS011;15330;51.234;6.754;2023-08-12T11:54:55;1.25;;;0.90;;
28003;SDS011;15330;51.234;6.754;2023-08-12T11:57:22;1.33;;;0.98;;
28003;SDS011;15330;51.234;6.754;2023-08-12T11:59:48;2.65;;;1.30;;
28003;SDS011;15330;51.234;6.754;2023-08-12T12:02:16;1.20;;;0.80;;
28003;SDS011;15330;51.234;6.754;2023-08-12T12:04:42;1.10;;;1.00;;
28003;SDS011;15330;51.234;6.754;2023-08-12T12:07:17;1.00;;;0.77;;
28003;SDS011;15330;51.234;6.754;2023-08-12T12:09:46;0.90;;;0.90;;
28003;SDS011;15330;51.234;6.754;2023-08-12T12:12:12;1.67;;;0.88;;
28003;SDS011;15330;51.234;6.754;2023-08-12T12:14:37;3.17;;;1.02;;
28003;SDS011;15330;51.234;6.754;2023-08-12T12:17:06;4.80;;;0.88;;
28003;SDS011;15330;51.234;6.754;2023-08-12T12:19:34;1.20;;;0.70;;
28003;SDS011;15330;51.234;6.754;2023-08-12T12:22:01;0.70;;;0.70;;
28003;SDS011;15330;51.234;6.754;2023-08-12T12:24:28;1.20;;;0.70;;
28003;SDS011;15330;51.234;6.754;2023-08-12T12:26:54;3.33;;;1.15;;
28003;SDS011;15330;51.234;6.754;2023-08-12T12:29:21;0.77;;;0.77;;
28003;SDS011;15330;51.234;6.754;2023-08-12T12:31:47;1.30;;;1.20;;
28003;SDS011;15330;51.234;6.754;2023-08-12T12:34:12;1.95;;;1.65;;
28003;SDS011;15330;51.234;6.754;2023-08-12T12:36:39;1.90;;;1.70;;
28003;SDS011;15330;51.234;6.754;2023-08-12T12:39:05;2.72;;;2.13;;
28003;SDS011;15330;51.234;6.754;2023-08-12T12:41:32;3.47;;;2.33;;
28003;SDS011;15330;51.234;6.754;2023-08-12T12:43:59;2.72;;;2.53;;
28003;SDS011;15330;51.234;6.754;2023-08-12T12:46:25;2.90;;;2.70;;
28003;SDS011;15330;51.234;6.754;2023-08-12T12:48:51;3.85;;;3.05;;
28003;SDS011;15330;51.234;6.754;2023-08-12T12:51:16;4.65;;;3.00;;
28003;SDS011;15330;51.234;6.754;2023-08-12T12:53:42;4.93;;;4.13;;
28003;SDS011;15330;51.234;6.754;2023-08-12T12:56:07;4.10;;;3.70;;
28003;SDS011;15330;51.234;6.754;2023-08-12T12:58:33;5.57;;;4.63;;
28003;SDS011;15330;51.234;6.754;2023-08-12T13:00:59;7.40;;;4.50;;
28003;SDS011;15330;51.234;6.754;2023-08-12T13:03:25;6.13;;;4.50;;
28003;SDS011;15330;51.234;6.754;2023-08-12T13:05:51;5.80;;;5.20;;
28003;SDS011;15330;51.234;6.754;2023-08-12T13:08:17;4.88;;;4.47;;
28003;SDS011;15330;51.234;6.754;2023-08-12T13:10:42;5.70;;;4.68;;
28003;SDS011;15330;51.234;6.754;2023-08-12T13:13:08;5.60;;;5.00;;
28003;SDS011;15330;51.234;6.754;2023-08-12T13:15:33;5.53;;;5.03;;
28003;SDS011;15330;51.234;6.754;2023-08-12T13:17:59;5.35;;;4.85;;
28003;SDS011;15330;51.234;6.754;2023-08-12T13:20:25;5.38;;;4.90;;
28003;SDS011;15330;51.234;6.754;2023-08-12T13:22:50;5.65;;;5.15;;
28003;SDS011;15330;51.234;6.754;2023-08-12T13:25:16;5.10;;;4.63;;
28003;SDS011;15330;51.234;6.754;2023-08-12T13:27:42;5.50;;;5.00;;
28003;SDS011;15330;51.234;6.754;2023-08-12T13:30:08;5.45;;;4.95;;
28003;SDS011;15330;51.234;6.754;2023-08-12T13:32:34;5.70;;;4.60;;
28003;SDS011;15330;51.234;6.754;2023-08-12T13:35:00;5.32;;;4.60;;
28003;SDS011;15330;51.234;6.754;2023-08-12T13:37:25;5.82;;;4.55;;
28003;SDS011;15330;51.234;6.754;2023-08-12T13:39:50;5.90;;;4.57;;
28003;SDS011;15330;51.234;6.754;2023-08-12T13:42:16;5.45;;;4.95;;
28003;SDS011;15330;51.234;6.754;2023-08-12T13:44:41;9.95;;;5.38;;
28003;SDS011;15330;51.234;6.754;2023-08-12T13:47:06;6.63;;;3.95;;
28003;SDS011;15330;51.234;6.754;2023-08-12T13:49:32;5.72;;;3.53;;
28003;SDS011;15330;51.234;6.754;2023-08-12T13:51:57;4.93;;;4.00;;
28003;SDS011;15330;51.234;6.754;2023-08-12T13:54:24;4.60;;;4.05;;
28003;SDS011;15330;51.234;6.754;2023-08-12T13:56:49;5.35;;;4.70;;
28003;SDS011;15330;51.234;6.754;2023-08-12T13:59:14;5.95;;;5.45;;
28003;SDS011;15330;51.234;6.754;2023-08-12T14:01:40;6.10;;;5.05;;
28003;SDS011;15330;51.234;6.754;2023-08-12T14:04:05;5.57;;;5.07;;
28003;SDS011;15330;51.234;6.754;2023-08-12T14:06:30;6.25;;;5.10;;
28003;SDS011;15330;51.234;6.754;2023-08-12T14:08:56;6.15;;;5.55;;
28003;SDS011;15330;51.234;6.754;2023-08-12T14:11:21;7.32;;;4.93;;
28003;SDS011;15330;51.234;6.754;2023-08-12T14:13:47;4.88;;;4.47;;
28003;SDS011;15330;51.234;6.754;2023-08-12T14:16:12;6.20;;;4.60;;
28003;SDS011;15330;51.234;6.754;2023-08-12T14:18:37;4.50;;;4.10;;
28003;SDS011;15330;51.234;6.754;2023-08-12T14:21:03;5.07;;;4.00;;
28003;SDS011;15330;51.234;6.754;2023-08-12T14:23:29;5.38;;;3.83;;
28003;SDS011;15330;51.234;6.754;2023-08-12T14:25:54;3.78;;;3.47;;
28003;SDS011;15330;51.234;6.754;2023-08-12T14:28:20;3.50;;;3.20;;
28003;SDS011;15330;51.234;6.754;2023-08-12T14:30:45;3.72;;;3.40;;
28003;SDS011;15330;51.234;6.754;2023-08-12T14:33:11;3.55;;;3.20;;
28003;SDS011;15330;51.234;6.754;2023-08-12T14:35:36;5.28;;;3.25;;
28003;SDS011;15330;51.234;6.754;2023-08-12T14:38:01;3.30;;;3.00;;
28003;SDS011;15330;51.234;6.754;2023-08-12T14:40:27;6.88;;;3.08;;
28003;SDS011;15330;51.234;6.754;2023-08-12T14:42:53;5.45;;;3.25;;
28003;SDS011;15330;51.234;6.754;2023-08-12T14:45:18;3.47;;;2.80;;
28003;SDS011;15330;51.234;6.754;2023-08-12T14:47:43;4.78;;;3.10;;
28003;SDS011;15330;51.234;6.754;2023-08-12T14:50:09;3.42;;;2.58;;